EW4554 Weather Reports


time (UTC)temp
C
wind
direction
speed
KPH
gust
KPH
rain 1hr
cm
rain 24hr
cm
rain mn
cm
humidity
%
barometer
mb
20190919150003 25 271 1.6 4.8 0.00 0.00 0.00 63 1015.2
20190919144508 24 277 3.2 6.4 0.00 0.00 0.00 65 1015.4
20190919143159 23 261 1.6 4.8 0.00 0.00 0.00 65 1015.3
20190919143005 23 261 1.6 4.8 0.00 0.00 0.00 64 1015.3
20190919141645 24 240 1.6 4.8 0.00 0.00 0.00 63 1015.3
20190919140205 24 290 3.2 12.9 0.00 0.00 0.00 64 1015.4
20190919134759 25 261 0.0 1.6 0.00 0.00 0.00 65 1015.4
20190919133128 25 286 0.0 1.6 0.00 0.00 0.00 62 1015.5
20190919131635 25 285 0.0 6.4 0.00 0.00 0.00 58 1015.5
20190919130215 26 290 0.0 6.4 0.00 0.00 0.00 58 1015.7
20190919124646 26 248 0.0 4.8 0.00 0.00 0.00 61 1015.9
20190919123144 26 5 0.0 1.6 0.00 0.00 0.00 60 1016.0
20190919121645 24 325 0.0 3.2 0.00 0.00 0.00 65 1016.3
20190919120149 23 336 0.0 4.8 0.00 0.00 0.00 67 1016.4
20190919114624 23 280 1.6 8.0 0.00 0.00 0.00 66 1016.6
20190919113139 22 284 1.6 8.0 0.00 0.00 0.00 70 1016.7
20190919111614 22 192 0.0 6.4 0.00 0.00 0.00 69 1016.8
20190919110138 21 136 0.0 6.4 0.00 0.00 0.00 71 1017.0
20190919104535 20 225 0.0 3.2 0.00 0.00 0.00 76 1017.1
20190919103036 20 190 1.6 6.4 0.00 0.00 0.00 76 1017.3
20190919101527 19 231 4.8 9.7 0.00 0.00 0.00 79 1017.3
20190919100042 18 184 1.6 6.4 0.00 0.00 0.00 80 1017.4
20190919094533 18 202 3.2 6.4 0.00 0.00 0.00 82 1017.6
20190919093036 17 332 0.0 3.2 0.00 0.00 0.00 85 1017.5
20190919091509 17 47 1.6 4.8 0.00 0.00 0.00 85 1017.3
20190919090006 17 360 0.0 0.0 0.00 0.00 0.00 85 1017.2
20190919084710 17 94 0.0 3.2 0.00 0.00 0.00 87 1017.1
20190919083241 16 96 0.0 1.6 0.00 0.00 0.00 88 1017.1
20190919081623 16 41 0.0 4.8 0.00 0.00 0.00 88 1017.0
20190919080115 16 9 0.0 6.4 0.00 0.00 0.00 88 1016.9
20190919074645 16 355 0.0 3.2 0.00 0.00 0.00 88 1016.9
20190919073126 16 24 0.0 0.0 0.00 0.00 0.00 89 1016.9
20190919071732 16 24 0.0 0.0 0.00 0.00 0.00 89 1016.8
20190919070203 16 46 0.0 3.2 0.00 0.00 0.00 89 1016.8
20190919064613 16 55 0.0 1.6 0.00 0.00 0.00 89 1016.6
20190919063120 16 348 0.0 6.4 0.00 0.00 0.00 88 1016.4
20190919061708 16 325 0.0 0.0 0.00 0.00 0.00 88 1016.2
20190919060128 16 294 0.0 0.0 0.00 0.00 0.00 89 1016.1
20190919054626 16 294 0.0 0.0 0.00 0.00 0.00 88 1016.1
20190919053114 16 295 0.0 0.0 0.00 0.00 0.00 88 1016.1
20190919051601 16 294 0.0 0.0 0.00 0.00 0.00 88 1016.2
20190919050112 16 294 0.0 0.0 0.00 0.00 0.00 88 1016.2
20190919044635 16 317 0.0 0.0 0.00 0.00 0.00 88 1016.2
20190919043124 16 317 0.0 0.0 0.00 0.00 0.00 88 1016.1
20190919041633 16 321 0.0 0.0 0.00 0.00 0.00 89 1016.0
20190919040054 16 321 0.0 0.0 0.00 0.00 0.00 89 1016.1
20190919034603 16 209 0.0 1.6 0.00 0.00 0.00 89 1016.1
20190919033056 16 207 0.0 0.0 0.00 0.00 0.00 89 1016.2
20190919031613 16 207 0.0 6.4 0.00 0.00 0.00 89 1016.2
20190919030047 16 234 0.0 0.0 0.00 0.00 0.00 89 1016.3
20190919024605 16 233 0.0 0.0 0.00 0.00 0.00 89 1016.4
20190919023046 16 234 0.0 0.0 0.00 0.00 0.00 89 1016.5
20190919021544 16 271 0.0 0.0 0.00 0.00 0.00 88 1016.6
20190919020035 16 254 0.0 4.8 0.00 0.00 0.00 88 1016.7
20190919014557 16 21 0.0 0.0 0.00 0.00 0.00 88 1016.8
20190919013058 16 21 0.0 1.6 0.00 0.00 0.00 88 1016.9
20190919011606 17 360 0.0 3.2 0.00 0.00 0.00 88 1017.1
20190919010110 16 254 0.0 0.0 0.00 0.00 0.00 88 1017.2
20190919004537 16 254 0.0 0.0 0.00 0.00 0.00 88 1017.2
20190919003031 16 254 0.0 0.0 0.00 0.00 0.00 88 1017.3
20190919001527 16 254 0.0 0.0 0.00 0.00 0.00 88 1017.1
20190919000049 16 254 0.0 4.8 0.00 0.00 0.00 88 1017.3
20190918234548 16 325 0.0 0.0 0.00 0.00 0.00 88 1017.2
20190918233059 16 325 0.0 0.0 0.00 0.00 0.00 88 1017.2
20190918231531 16 325 0.0 0.0 0.00 0.00 0.00 88 1017.2
20190918230026 16 351 0.0 1.6 0.00 0.00 0.00 88 1017.2
20190918224531 16 355 0.0 0.0 0.00 0.00 0.00 88 1017.4
20190918223032 16 355 0.0 4.8 0.00 0.00 0.00 88 1017.6
20190918221527 16 236 0.0 4.8 0.00 0.00 0.00 88 1017.5
20190918220058 16 313 0.0 3.2 0.00 0.00 0.00 88 1017.4
20190918214518 16 343 0.0 0.0 0.00 0.00 0.00 88 1017.4
20190918213027 16 343 0.0 0.0 0.00 0.00 0.00 88 1017.5
20190918211538 16 343 0.0 0.0 0.00 0.00 0.00 87 1017.6
20190918210016 17 327 0.0 0.0 0.00 0.00 0.00 87 1017.7
20190918204515 17 281 0.0 4.8 0.00 0.00 0.00 87 1017.5
20190918203025 17 243 0.0 0.0 0.00 0.00 0.00 87 1017.4
20190918201531 17 240 1.6 4.8 0.00 0.00 0.00 87 1017.2
20190918200011 17 252 0.0 4.8 0.00 0.00 0.00 87 1017.2
20190918194530 16 247 0.0 0.0 0.00 0.00 0.00 87 1017.1
20190918193006 16 246 3.2 6.4 0.00 0.00 0.00 87 1016.8
20190918191504 16 255 1.6 12.9 0.00 0.00 0.00 87 1016.8
20190918190009 16 232 0.0 4.8 0.00 0.00 0.00 86 1016.7
20190918184514 17 264 0.0 3.2 0.00 0.00 0.00 84 1016.5
20190918183006 17 264 0.0 4.8 0.00 0.00 0.00 84 1016.4
20190918181731 17 240 3.2 9.7 0.00 0.00 0.00 82 1016.4
20190918181502 17 229 3.2 9.7 0.00 0.00 0.00 82 1016.4
20190918174814 19 247 1.6 4.8 0.00 0.00 0.00 77 1016.1
20190918173255 20 222 1.6 6.4 0.00 0.00 0.00 73 1015.8
20190918171725 21 273 0.0 6.4 0.00 0.00 0.00 69 1015.8
20190918170145 22 261 0.0 9.7 0.00 0.00 0.00 67 1015.6
20190918164842 23 259 0.0 6.4 0.00 0.00 0.00 66 1015.5
20190918163200 23 290 1.6 12.9 0.00 0.00 0.00 63 1015.4
20190918161706 25 10 0.0 11.3 0.00 0.00 0.00 62 1015.4
20190918160140 26 269 3.2 9.7 0.00 0.00 0.00 56 1015.4
20190918154716 27 219 0.0 3.2 0.00 0.00 0.00 56 1015.2
20190918153251 27 259 1.6 12.9 0.00 0.00 0.00 56 1015.0
20190918151641 29 254 3.2 6.4 0.00 0.00 0.00 50 1014.8